createdAt,value
2019-04-01T00:23:39.548Z,100967.06
2019-04-01T00:26:09.494Z,100970.72
2019-04-01T00:28:39.027Z,100971.27
2019-04-01T00:31:08.874Z,100975.09
2019-04-01T00:33:38.812Z,100966.69
2019-04-01T00:36:08.686Z,100964.12
2019-04-01T00:38:38.307Z,100954.90
2019-04-01T00:41:08.210Z,100968.59
2019-04-01T00:43:55.342Z,100963.81
2019-04-01T00:46:25.436Z,100966.63
2019-04-01T00:48:55.269Z,100974.70
2019-04-01T00:51:25.332Z,100972.95
2019-04-01T00:53:54.996Z,100969.41
2019-04-01T00:56:24.935Z,100974.16
2019-04-01T00:58:56.006Z,100968.62
2019-04-01T01:01:25.877Z,100969.02
2019-04-01T01:03:55.794Z,100964.95
2019-04-01T01:06:25.516Z,100969.64
2019-04-01T01:08:56.386Z,100961.95
2019-04-01T01:11:26.164Z,100956.41
2019-04-01T01:13:55.971Z,100956.03
2019-04-01T01:16:25.862Z,100950.37
2019-04-01T01:18:55.499Z,100951.77
2019-04-01T01:21:25.335Z,100946.86
2019-04-01T02:25:27.763Z,100965.77
2019-04-01T02:27:57.506Z,100965.16
2019-04-01T02:30:27.409Z,100971.88
2019-04-01T02:32:57.124Z,100975.44
2019-04-01T02:35:27.062Z,100969.42
2019-04-01T02:37:56.954Z,100972.23
2019-04-01T02:40:27.043Z,100975.87
2019-04-01T02:42:58.503Z,100980.09
2019-04-01T02:45:28.459Z,100976.25
2019-04-01T02:47:58.223Z,100983.99
2019-04-01T02:50:28.138Z,100985.42
2019-04-01T02:52:57.956Z,100980.78
2019-04-01T02:55:27.914Z,100983.76
2019-04-01T02:57:57.699Z,100978.63
2019-04-01T03:00:27.464Z,100979.86
2019-04-01T03:02:57.319Z,100982.33
2019-04-01T03:05:26.937Z,100981.34
2019-04-01T03:07:56.699Z,100973.67
2019-04-01T03:10:26.717Z,100975.23
2019-04-01T03:12:56.588Z,100981.61
2019-04-01T03:15:26.384Z,100975.13
2019-04-01T03:17:56.348Z,100975.05
2019-04-01T03:20:26.115Z,100983.05
2019-04-01T03:22:55.846Z,100981.31
2019-04-01T04:23:50.739Z,101047.78
2019-04-01T04:26:20.849Z,101051.11
2019-04-01T04:28:50.633Z,101046.84
2019-04-01T04:31:20.650Z,101047.61
2019-04-01T04:33:50.437Z,101051.11
2019-04-01T04:36:20.163Z,101042.35
2019-04-01T04:38:51.124Z,101051.88
2019-04-01T04:41:20.905Z,101048.41
2019-04-01T04:43:50.937Z,101043.96
2019-04-01T04:46:21.446Z,101051.06
2019-04-01T04:48:51.282Z,101045.45
2019-04-01T04:51:21.078Z,101054.92
2019-04-01T04:53:50.944Z,101056.81
2019-04-01T04:56:20.620Z,101059.72
2019-04-01T04:58:50.462Z,101054.84
2019-04-01T05:01:20.244Z,101060.73
2019-04-01T05:03:49.961Z,101058.80
2019-04-01T05:06:19.701Z,101058.25
2019-04-01T05:08:49.380Z,101052.94
2019-04-01T05:11:19.254Z,101048.97
2019-04-01T05:13:49.054Z,101054.58
2019-04-01T05:16:18.829Z,101051.63
2019-04-01T05:18:48.837Z,101049.61
2019-04-01T05:21:19.001Z,101043.58
2019-04-01T06:23:40.381Z,101051.20
2019-04-01T06:26:10.433Z,101048.37
2019-04-01T06:28:40.214Z,101049.31
2019-04-01T06:31:10.076Z,101053.87
2019-04-01T06:33:39.790Z,101047.06
2019-04-01T06:36:10.985Z,101049.70
2019-04-01T06:38:41.051Z,101048.13
2019-04-01T06:41:10.884Z,101048.50
2019-04-01T06:43:40.937Z,101041.00
2019-04-01T06:46:10.705Z,101047.61
2019-04-01T06:48:40.511Z,101047.84
2019-04-01T06:51:10.227Z,101054.81
2019-04-01T06:53:39.736Z,101049.00
2019-04-01T06:56:09.710Z,101055.41
2019-04-01T06:58:39.378Z,101058.91
2019-04-01T07:01:09.208Z,101056.59
2019-04-01T07:03:39.253Z,101052.64
2019-04-01T07:06:09.019Z,101053.86
2019-04-01T07:08:38.725Z,101057.73
2019-04-01T07:11:09.993Z,101065.72
2019-04-01T07:13:40.280Z,101065.69
2019-04-01T07:16:15.708Z,101066.59
2019-04-01T07:18:41.710Z,101063.53
2019-04-01T07:21:11.716Z,101056.92
2019-04-01T07:48:27.738Z,101068.22
2019-04-01T07:50:57.496Z,101070.95
2019-04-01T07:53:27.652Z,101071.96
2019-04-01T07:55:57.864Z,101074.56
2019-04-01T07:58:29.184Z,101074.23
2019-04-01T08:00:59.299Z,101071.66
2019-04-01T08:03:31.476Z,101071.55
2019-04-01T08:06:01.394Z,101071.63
2019-04-01T08:08:31.199Z,101069.16
2019-04-01T08:11:01.290Z,101069.16
2019-04-01T08:13:31.455Z,101067.24
2019-04-01T08:16:01.262Z,101058.50
2019-04-01T08:18:33.965Z,101050.56
2019-04-01T08:21:02.876Z,101054.66
2019-04-01T08:23:35.745Z,101052.30
2019-04-01T08:26:05.534Z,101055.91
2019-04-01T08:28:35.385Z,101053.35
2019-04-01T08:31:05.287Z,101048.03
2019-04-01T08:33:35.209Z,101046.96
2019-04-01T08:36:06.265Z,101053.63
2019-04-01T08:38:36.345Z,101047.89
2019-04-01T08:41:06.204Z,101047.67
2019-04-01T08:43:36.094Z,101045.56
2019-04-01T08:46:06.188Z,101037.56
2019-04-01T08:48:36.658Z,101040.89
2019-04-01T08:51:06.365Z,101042.48
2019-04-01T08:53:36.444Z,101042.72
2019-04-01T08:56:06.501Z,101039.88
2019-04-01T08:58:36.408Z,101038.49
2019-04-01T09:01:06.568Z,101034.70
2019-04-01T09:03:36.326Z,101008.99
2019-04-01T09:06:06.039Z,101034.70
2019-04-01T09:08:36.097Z,101040.77
2019-04-01T09:11:06.001Z,101041.59
2019-04-01T09:13:35.994Z,101043.13
2019-04-01T09:16:05.807Z,101052.98
2019-04-01T09:18:35.631Z,101052.64
2019-04-01T09:21:05.510Z,101050.23
2019-04-01T10:24:52.065Z,101031.00
2019-04-01T10:27:21.882Z,101034.31
2019-04-01T10:29:51.761Z,101038.13
2019-04-01T10:32:21.779Z,101037.48
2019-04-01T10:34:51.618Z,101031.89
2019-04-01T10:37:21.377Z,101034.17
2019-04-01T10:39:51.148Z,101035.05
2019-04-01T10:42:20.824Z,101031.83
2019-04-01T10:44:50.543Z,101024.05
2019-04-01T10:47:20.400Z,101037.39
2019-04-01T10:49:50.087Z,101034.98
2019-04-01T10:52:19.971Z,101028.34
2019-04-01T10:54:49.773Z,101035.28
2019-04-01T10:57:19.622Z,101025.50
2019-04-01T10:59:49.740Z,101024.69
2019-04-01T11:02:19.737Z,101026.67
2019-04-01T11:04:49.611Z,101029.55
2019-04-01T11:07:20.558Z,101015.67
2019-04-01T11:09:50.580Z,101020.79
2019-04-01T11:12:20.215Z,101011.10
2019-04-01T11:14:50.240Z,101009.12
2019-04-01T11:17:19.949Z,101009.80
2019-04-01T11:19:50.586Z,101005.12
2019-04-01T11:22:20.242Z,101003.39
2019-04-01T12:24:37.243Z,100952.08
2019-04-01T12:27:06.974Z,100948.73
2019-04-01T12:29:36.976Z,100945.95
2019-04-01T12:32:06.724Z,100946.42
2019-04-01T12:34:36.647Z,100945.56
2019-04-01T12:37:06.373Z,100946.09
2019-04-01T12:39:36.145Z,100943.84
2019-04-01T12:42:05.964Z,100945.09
2019-04-01T12:44:35.819Z,100944.57
2019-04-01T12:47:05.791Z,100943.77
2019-04-01T12:49:35.732Z,100940.22
2019-04-01T12:52:05.598Z,100941.36
2019-04-01T12:54:35.558Z,100941.05
2019-04-01T12:57:05.408Z,100934.41
2019-04-01T12:59:35.403Z,100931.89
2019-04-01T13:02:05.507Z,100924.29
2019-04-01T13:04:36.165Z,100924.80
2019-04-01T13:07:06.206Z,100926.11
2019-04-01T13:09:36.037Z,100918.57
2019-04-01T13:12:06.084Z,100919.84
2019-04-01T13:14:35.873Z,100907.66
2019-04-01T13:17:05.729Z,100919.60
2019-04-01T13:19:35.479Z,100920.40
2019-04-01T13:22:05.304Z,100922.39
2019-04-01T14:24:07.687Z,100917.30
2019-04-01T14:26:37.495Z,100926.16
2019-04-01T14:29:07.413Z,100913.52
2019-04-01T14:31:37.327Z,100916.62
2019-04-01T14:34:13.122Z,100925.97
2019-04-01T14:36:38.793Z,100922.36
2019-04-01T14:39:08.958Z,100926.49
2019-04-01T14:41:38.722Z,100918.50
2019-04-01T14:44:08.336Z,100923.91
2019-04-01T14:46:38.185Z,100926.34
2019-04-01T14:49:08.167Z,100927.53
2019-04-01T14:51:38.023Z,100933.31
2019-04-01T14:54:09.354Z,100936.06
2019-04-01T14:56:39.199Z,100936.59
2019-04-01T14:59:08.983Z,100936.79
2019-04-01T15:01:38.723Z,100936.91
2019-04-01T15:04:08.595Z,100934.78
2019-04-01T15:06:38.502Z,100925.25
2019-04-01T15:09:09.151Z,100929.06
2019-04-01T15:11:38.953Z,100932.61
2019-04-01T15:14:08.970Z,100932.40
2019-04-01T15:16:38.837Z,100938.05
2019-04-01T15:19:11.132Z,100944.59
2019-04-01T15:21:40.305Z,100933.77
2019-04-01T16:23:59.807Z,100952.98
2019-04-01T16:26:29.862Z,100945.64
2019-04-01T16:28:59.649Z,100946.28
2019-04-01T16:31:29.532Z,100954.16
2019-04-01T16:33:59.396Z,100953.81
2019-04-01T16:36:29.393Z,100960.22
2019-04-01T16:38:59.178Z,100966.39
2019-04-01T16:41:30.344Z,100968.48
2019-04-01T16:44:00.143Z,100965.22
2019-04-01T16:46:30.068Z,100968.05
2019-04-01T16:48:59.942Z,100973.30
2019-04-01T16:51:29.749Z,100973.25
2019-04-01T16:53:59.625Z,100975.80
2019-04-01T16:56:29.542Z,100982.98
2019-04-01T16:58:59.958Z,100984.83
2019-04-01T17:01:29.664Z,100981.08
2019-04-01T17:03:59.637Z,100987.06
2019-04-01T17:06:29.516Z,100984.06
2019-04-01T17:08:59.428Z,100990.58
2019-04-01T17:11:30.895Z,100989.42
2019-04-01T17:14:00.687Z,100995.85
2019-04-01T17:16:30.525Z,101001.77
2019-04-01T17:19:00.493Z,100999.90
2019-04-01T17:21:30.329Z,101004.95
2019-04-01T17:54:39.910Z,101030.72
2019-04-01T17:57:09.937Z,101034.19
2019-04-01T17:59:39.852Z,101032.42
2019-04-01T18:02:13.718Z,101038.55
2019-04-01T18:04:43.516Z,101043.76
2019-04-01T18:07:13.399Z,101041.36
2019-04-01T18:09:43.309Z,101046.73
2019-04-01T18:12:13.120Z,101055.78
2019-04-01T18:14:43.022Z,101050.86
2019-04-01T18:17:14.183Z,101059.32
2019-04-01T18:19:43.986Z,101056.38
2019-04-01T18:22:13.902Z,101057.20
2019-04-01T18:24:43.791Z,101059.22
2019-04-01T18:27:14.947Z,101063.13
2019-04-01T18:29:45.119Z,101059.03
2019-04-01T18:32:14.967Z,101057.20
2019-04-01T18:34:44.873Z,101053.30
2019-04-01T18:37:14.756Z,101051.98
2019-04-01T18:39:48.394Z,101062.95
2019-04-01T18:42:16.311Z,101062.68
2019-04-01T18:44:46.242Z,101066.93
2019-04-01T18:47:17.218Z,101070.77
2019-04-01T18:49:47.047Z,101076.07
2019-04-01T18:52:17.024Z,101080.72
2019-04-01T18:54:46.830Z,101090.14
2019-04-01T18:57:16.794Z,101083.23
2019-04-01T18:59:46.538Z,101083.47
2019-04-01T19:02:16.254Z,101089.20
2019-04-01T19:04:46.017Z,101090.59
2019-04-01T19:07:15.785Z,101094.45
2019-04-01T19:09:45.590Z,101094.14
2019-04-01T19:12:15.465Z,101087.83
2019-04-01T19:14:45.239Z,101094.14
2019-04-01T19:17:15.016Z,101087.57
2019-04-01T19:19:44.819Z,101088.62
2019-04-01T19:22:14.699Z,101091.89
2019-04-01T20:16:30.695Z,101089.98
2019-04-01T20:19:00.473Z,101094.64
2019-04-01T20:21:30.279Z,101103.48
2019-04-01T20:24:00.146Z,101101.29
2019-04-01T20:26:29.912Z,101109.20
2019-04-01T20:28:59.724Z,101111.37
2019-04-01T20:31:29.570Z,101106.23
2019-04-01T20:33:59.455Z,101109.94
2019-04-01T20:36:31.258Z,101109.55
2019-04-01T20:39:01.045Z,101115.52
2019-04-01T20:41:30.843Z,101117.60
2019-04-01T20:44:00.688Z,101121.36
2019-04-01T20:46:30.416Z,101129.64
2019-04-01T20:49:00.186Z,101133.34
2019-04-01T20:51:30.321Z,101141.12
2019-04-01T20:54:00.404Z,101141.70
2019-04-01T20:56:30.258Z,101146.41
2019-04-01T20:59:00.094Z,101148.48
2019-04-01T21:01:30.004Z,101146.02
2019-04-01T21:03:59.950Z,101149.75
2019-04-01T21:06:29.708Z,101147.37
2019-04-01T21:08:59.542Z,101151.31
2019-04-01T21:11:29.383Z,101150.16
2019-04-01T21:13:59.165Z,101149.39
2019-04-01T21:16:28.974Z,101151.80
2019-04-01T21:18:58.823Z,101143.66
2019-04-01T21:21:28.582Z,101140.81
2019-04-01T22:25:28.000Z,101204.64
2019-04-01T22:27:58.311Z,101214.09
2019-04-01T22:30:28.098Z,101217.42
2019-04-01T22:32:57.831Z,101223.89
2019-04-01T22:35:38.025Z,101221.55
2019-04-01T22:38:03.379Z,101215.47
2019-04-01T22:40:32.303Z,101224.16
2019-04-01T22:43:02.038Z,101224.80
2019-04-01T22:45:31.889Z,101226.89
2019-04-01T22:48:01.830Z,101229.14
2019-04-01T22:50:31.640Z,101231.08
2019-04-01T22:53:01.428Z,101229.04
2019-04-01T22:55:31.412Z,101230.08
2019-04-01T22:58:01.273Z,101227.88
2019-04-01T23:00:31.207Z,101232.63
2019-04-01T23:03:01.185Z,101228.14
2019-04-01T23:05:31.036Z,101236.84
2019-04-01T23:08:02.185Z,101238.74
2019-04-01T23:10:32.331Z,101233.91
2019-04-01T23:13:02.102Z,101237.00
2019-04-01T23:15:31.882Z,101234.48
2019-04-01T23:18:01.620Z,101235.61
2019-04-01T23:20:33.310Z,101240.55
2019-04-01T23:23:03.044Z,101237.64
